Time;durP1;ratioP1;P1;durP2;ratioP2;P2;SDS_P1;SDS_P2;PMS_P1;PMS_P2;Temp;Humidity;BMP_temperature;BMP_pressure;BME280_temperature;BME280_humidity;BME280_pressure;Samples;Min_cycle;Max_cycle;Signal;HPM_P1;HPM_P2
2024/01/16 00:00:09;;;;;;;3.55;2.20;;;4.50;99.90;;;;;;4917366;29;20236;-78
2024/01/16 00:02:36;;;;;;;1.95;1.85;;;4.50;99.90;;;;;;4918118;29;20233;-78
2024/01/16 00:05:04;;;;;;;2.05;1.55;;;4.40;99.90;;;;;;4917734;29;20629;-78
2024/01/16 00:07:34;;;;;;;2.05;1.75;;;4.40;99.90;;;;;;4917696;29;20221;-78
2024/01/16 00:10:01;;;;;;;2.95;2.00;;;4.30;99.90;;;;;;4917966;29;20297;-78
2024/01/16 00:12:29;;;;;;;2.60;1.77;;;4.30;99.90;;;;;;4917534;29;20237;-81
2024/01/16 00:14:56;;;;;;;3.28;2.45;;;4.20;99.90;;;;;;4917916;29;20312;-82
2024/01/16 00:17:23;;;;;;;3.95;2.50;;;4.20;99.90;;;;;;4916913;29;20238;-82
2024/01/16 00:19:49;;;;;;;2.72;2.20;;;4.20;99.90;;;;;;4917736;29;20221;-82
2024/01/16 00:22:20;;;;;;;5.93;2.30;;;4.10;99.90;;;;;;4917150;29;20240;-81
2024/01/16 00:24:48;;;;;;;4.72;2.85;;;4.10;99.90;;;;;;4917538;29;20236;-82
2024/01/16 00:27:15;;;;;;;3.88;2.28;;;4.10;99.90;;;;;;4917232;29;20707;-81
2024/01/16 00:29:42;;;;;;;6.38;2.80;;;4.10;99.90;;;;;;4917721;29;20251;-81
2024/01/16 00:32:09;;;;;;;3.20;2.75;;;4.10;99.90;;;;;;4917045;29;20244;-81
2024/01/16 00:34:36;;;;;;;4.43;2.75;;;4.10;99.90;;;;;;4919508;29;20664;-82
2024/01/16 00:37:03;;;;;;;3.58;2.30;;;4.10;99.90;;;;;;4916903;29;20739;-81
2024/01/16 00:39:30;;;;;;;3.50;3.20;;;4.10;99.90;;;;;;4917539;29;20225;-82
2024/01/16 00:41:58;;;;;;;3.10;2.20;;;4.00;99.90;;;;;;4916928;29;20700;-82
2024/01/16 00:44:25;;;;;;;6.50;3.30;;;4.00;99.90;;;;;;4917311;29;20236;-82
2024/01/16 00:46:52;;;;;;;6.43;2.35;;;4.00;99.90;;;;;;4916902;29;20244;-81
2024/01/16 00:49:19;;;;;;;6.32;2.13;;;4.00;99.90;;;;;;4917462;29;20221;-82
2024/01/16 00:51:46;;;;;;;3.72;2.15;;;4.00;99.90;;;;;;4917011;29;20228;-81
2024/01/16 00:54:13;;;;;;;3.95;2.22;;;3.80;99.90;;;;;;4916860;29;20240;-81
2024/01/16 00:56:43;;;;;;;5.32;2.60;;;3.70;99.90;;;;;;4917154;29;20229;-82
2024/01/16 00:59:12;;;;;;;3.28;1.90;;;3.60;99.90;;;;;;4916931;29;20314;-82
2024/01/16 01:01:39;;;;;;;2.50;2.20;;;3.60;99.90;;;;;;4917353;29;20226;-81
2024/01/16 01:04:06;;;;;;;2.80;1.88;;;3.60;99.90;;;;;;4917245;29;20237;-81
2024/01/16 01:06:33;;;;;;;2.42;1.80;;;3.50;99.90;;;;;;4920230;29;20225;-81
2024/01/16 01:09:00;;;;;;;1.92;1.42;;;3.50;99.90;;;;;;4916879;29;20229;-78
2024/01/16 01:11:27;;;;;;;3.17;1.60;;;3.40;99.90;;;;;;4916545;29;20229;-78
2024/01/16 01:13:54;;;;;;;4.43;1.73;;;3.20;99.90;;;;;;4917019;29;20257;-81
2024/01/16 01:16:22;;;;;;;5.90;1.92;;;3.20;99.90;;;;;;4916850;29;20229;-81
2024/01/16 01:18:49;;;;;;;1.30;1.17;;;3.20;99.90;;;;;;4917331;29;20304;-81
2024/01/16 01:21:17;;;;;;;2.25;1.80;;;3.10;99.90;;;;;;4916073;29;20256;-78
2024/01/16 01:23:44;;;;;;;2.08;1.40;;;3.00;99.90;;;;;;4917037;29;20230;-81
2024/01/16 01:26:13;;;;;;;2.80;1.70;;;3.00;99.90;;;;;;4916214;29;20249;-81
2024/01/16 01:28:40;;;;;;;1.83;1.30;;;3.00;99.90;;;;;;4917025;29;20569;-77
2024/01/16 01:31:07;;;;;;;6.45;1.67;;;2.90;99.90;;;;;;4916401;29;20628;-81
2024/01/16 01:33:43;;;;;;;2.85;1.50;;;2.90;99.90;;;;;;4915946;29;20680;-81
2024/01/16 01:36:10;;;;;;;1.70;1.48;;;2.90;99.90;;;;;;4907685;29;20288;-77
2024/01/16 01:38:37;;;;;;;4.65;1.73;;;2.90;99.90;;;;;;4917639;29;20229;-77
2024/01/16 01:41:04;;;;;;;3.28;1.40;;;2.90;99.90;;;;;;4916454;29;20261;-77
2024/01/16 01:43:32;;;;;;;1.75;1.45;;;2.90;99.90;;;;;;4917671;29;20229;-80
2024/01/16 01:46:10;;;;;;;2.40;1.80;;;2.90;99.90;;;;;;4916993;29;20587;-77
2024/01/16 01:48:42;;;;;;;3.22;1.20;;;2.90;99.90;;;;;;4916400;29;20304;-77
2024/01/16 01:51:14;;;;;;;2.55;1.30;;;2.90;99.90;;;;;;4917170;29;20245;-77
2024/01/16 01:53:47;;;;;;;2.30;1.42;;;2.90;99.90;;;;;;4916250;29;20241;-80
2024/01/16 01:56:18;;;;;;;4.63;1.30;;;3.00;99.90;;;;;;4916702;29;20702;-77
2024/01/16 01:58:47;;;;;;;1.55;1.30;;;3.00;99.90;;;;;;4916496;29;20743;-77
2024/01/16 02:01:16;;;;;;;1.65;1.55;;;3.00;99.90;;;;;;4916245;29;20230;-77
2024/01/16 02:03:46;;;;;;;1.38;1.27;;;3.00;99.90;;;;;;4916098;29;20229;-77
2024/01/16 02:06:15;;;;;;;1.70;1.48;;;3.10;99.90;;;;;;4916460;29;20253;-77
2024/01/16 02:08:42;;;;;;;2.35;1.77;;;3.10;99.90;;;;;;4915780;29;20230;-77
2024/01/16 02:11:12;;;;;;;3.08;1.77;;;3.10;99.90;;;;;;4916458;29;20316;-80
2024/01/16 02:13:41;;;;;;;5.65;2.05;;;3.10;99.90;;;;;;4916326;29;20271;-77
2024/01/16 02:16:18;;;;;;;1.33;1.20;;;3.10;99.90;;;;;;4915578;29;20234;-77
2024/01/16 02:18:47;;;;;;;2.35;1.25;;;3.10;99.90;;;;;;4916064;29;20239;-80
2024/01/16 02:21:19;;;;;;;2.97;1.60;;;3.10;99.90;;;;;;4916571;29;20320;-80
2024/01/16 02:23:47;;;;;;;1.30;1.20;;;3.10;99.90;;;;;;4919138;29;20229;-77
2024/01/16 02:26:16;;;;;;;2.35;2.20;;;3.10;99.90;;;;;;4919832;29;20225;-77
2024/01/16 02:28:43;;;;;;;1.17;1.08;;;3.10;99.90;;;;;;4919113;29;20241;-77
2024/01/16 02:31:10;;;;;;;1.65;1.50;;;3.10;99.90;;;;;;4920078;29;20229;-80
2024/01/16 02:33:37;;;;;;;1.95;1.85;;;3.10;99.90;;;;;;4919269;29;20688;-80
2024/01/16 02:36:05;;;;;;;3.85;1.67;;;3.10;99.90;;;;;;4919876;29;20233;-79
2024/01/16 02:38:32;;;;;;;2.75;1.65;;;3.10;99.90;;;;;;4919010;29;20240;-80
2024/01/16 02:41:01;;;;;;;2.33;1.52;;;3.10;99.90;;;;;;4919706;29;20242;-77
2024/01/16 02:43:28;;;;;;;2.85;1.75;;;3.10;99.90;;;;;;4918533;29;20234;-80
2024/01/16 02:45:55;;;;;;;2.03;1.85;;;3.20;99.90;;;;;;4919587;29;20256;-80
2024/01/16 02:48:22;;;;;;;1.65;1.52;;;3.10;99.90;;;;;;4919596;29;20643;-81
2024/01/16 02:50:53;;;;;;;1.73;1.63;;;3.10;99.90;;;;;;4918145;29;20232;-80
2024/01/16 02:53:20;;;;;;;1.48;1.38;;;3.10;99.90;;;;;;4918956;29;20692;-80
2024/01/16 02:55:47;;;;;;;3.63;1.65;;;3.10;99.90;;;;;;4918822;29;20233;-77
2024/01/16 02:58:16;;;;;;;5.60;3.38;;;3.10;99.90;;;;;;4919543;29;20598;-79
2024/01/16 03:00:42;;;;;;;3.90;2.97;;;3.10;99.90;;;;;;4918752;29;20237;-80
2024/01/16 03:03:10;;;;;;;5.20;3.90;;;3.10;99.90;;;;;;4919184;29;20237;-77
2024/01/16 03:05:37;;;;;;;9.93;6.43;;;3.10;99.90;;;;;;4917970;29;20253;-80
2024/01/16 03:08:05;;;;;;;9.00;5.20;;;3.10;99.90;;;;;;4919026;29;20240;-77
2024/01/16 03:10:32;;;;;;;5.30;3.53;;;3.00;99.90;;;;;;4918565;29;20312;-80
2024/01/16 03:13:00;;;;;;;4.20;3.20;;;3.00;99.90;;;;;;4919754;29;20233;-80
2024/01/16 03:15:30;;;;;;;2.50;2.30;;;3.10;99.90;;;;;;4918964;29;20557;-80
2024/01/16 03:17:57;;;;;;;7.03;3.38;;;3.10;99.90;;;;;;4918435;29;20236;-77
2024/01/16 03:20:24;;;;;;;6.55;4.85;;;3.10;99.90;;;;;;4918993;29;20240;-77
2024/01/16 03:22:51;;;;;;;2.90;2.70;;;3.10;99.90;;;;;;4918098;29;20233;-77
2024/01/16 03:25:19;;;;;;;2.75;1.98;;;3.10;99.90;;;;;;4918532;29;20231;-77
2024/01/16 03:27:48;;;;;;;3.45;2.40;;;3.10;99.90;;;;;;4918585;29;20229;-77
2024/01/16 03:30:15;;;;;;;3.20;2.30;;;3.20;99.90;;;;;;4918894;29;20225;-77
2024/01/16 03:32:43;;;;;;;2.38;1.88;;;3.10;99.90;;;;;;4917714;29;20229;-80
2024/01/16 03:35:10;;;;;;;2.15;1.85;;;3.20;99.90;;;;;;4918121;29;20225;-80
2024/01/16 03:37:39;;;;;;;4.15;3.10;;;3.20;99.90;;;;;;4916625;29;20234;-81
2024/01/16 03:40:09;;;;;;;6.38;3.55;;;3.20;99.90;;;;;;4918419;29;20316;-77
2024/01/16 03:42:36;;;;;;;4.20;3.80;;;3.20;99.90;;;;;;4917808;29;20571;-77
2024/01/16 03:45:03;;;;;;;5.32;3.20;;;3.20;99.90;;;;;;4918493;29;20229;-77
2024/01/16 03:47:30;;;;;;;5.65;2.88;;;3.20;99.90;;;;;;4918146;29;20265;-77
2024/01/16 03:49:58;;;;;;;4.05;3.00;;;3.20;99.90;;;;;;4916954;29;20229;-77
2024/01/16 03:52:25;;;;;;;6.80;2.78;;;3.30;99.90;;;;;;4918140;29;20316;-77
2024/01/16 03:54:52;;;;;;;4.65;2.40;;;3.20;99.90;;;;;;4917567;29;20233;-80
2024/01/16 03:57:19;;;;;;;2.55;1.80;;;3.20;99.90;;;;;;4918304;29;20272;-77
2024/01/16 03:59:46;;;;;;;2.45;2.25;;;3.20;99.90;;;;;;4917525;29;20237;-76
2024/01/16 04:02:14;;;;;;;2.72;2.00;;;3.30;99.90;;;;;;4917975;29;20236;-77
2024/01/16 04:04:42;;;;;;;2.67;2.25;;;3.30;99.90;;;;;;4917279;29;20268;-77
2024/01/16 04:07:10;;;;;;;3.10;2.10;;;3.20;99.90;;;;;;4910103;29;20668;-80
2024/01/16 04:09:37;;;;;;;3.60;2.58;;;3.20;99.90;;;;;;4918041;29;20242;-77
2024/01/16 04:12:05;;;;;;;7.45;2.80;;;3.20;99.90;;;;;;4917391;29;20260;-77
2024/01/16 04:14:32;;;;;;;3.55;2.40;;;3.20;99.90;;;;;;4918053;29;20320;-77
2024/01/16 04:16:59;;;;;;;4.18;1.83;;;3.20;99.90;;;;;;4917012;29;20277;-77
2024/01/16 04:19:26;;;;;;;4.80;2.45;;;3.20;99.90;;;;;;4917490;29;20225;-77
2024/01/16 04:21:54;;;;;;;6.18;3.45;;;3.20;99.90;;;;;;4916961;29;20688;-76
2024/01/16 04:24:22;;;;;;;3.67;2.92;;;3.20;99.90;;;;;;4917598;29;20630;-77
2024/01/16 04:26:50;;;;;;;2.97;2.65;;;3.20;99.90;;;;;;4917144;29;20308;-77
2024/01/16 04:29:17;;;;;;;6.30;2.40;;;3.20;99.90;;;;;;4917487;29;20316;-77
2024/01/16 04:31:44;;;;;;;2.90;2.50;;;3.20;99.90;;;;;;4917021;29;20241;-76
2024/01/16 04:34:11;;;;;;;3.08;2.78;;;3.20;99.90;;;;;;4917658;29;20684;-80
2024/01/16 04:36:39;;;;;;;2.50;2.30;;;3.20;99.90;;;;;;4917197;29;20814;-80
2024/01/16 04:39:06;;;;;;;4.00;2.70;;;3.30;99.90;;;;;;4916849;29;20229;-77
2024/01/16 04:41:37;;;;;;;2.78;1.92;;;3.20;99.90;;;;;;4917913;29;20263;-81
2024/01/16 04:44:06;;;;;;;1.75;1.65;;;3.20;99.90;;;;;;4916503;29;20293;-81
2024/01/16 04:46:33;;;;;;;2.42;2.22;;;3.20;99.90;;;;;;4917257;29;20257;-81
2024/01/16 04:49:00;;;;;;;2.78;2.55;;;3.20;99.90;;;;;;4917040;29;20249;-81
2024/01/16 04:51:27;;;;;;;4.07;2.33;;;3.20;99.90;;;;;;4917257;29;20257;-77
2024/01/16 04:53:56;;;;;;;2.42;2.22;;;3.20;99.90;;;;;;4915967;29;20245;-81
2024/01/16 04:56:23;;;;;;;4.30;2.33;;;3.20;99.90;;;;;;4917744;29;20236;-77
2024/01/16 04:58:52;;;;;;;3.20;2.90;;;3.10;99.90;;;;;;4916792;29;20225;-77
2024/01/16 05:01:25;;;;;;;3.63;2.67;;;3.10;99.90;;;;;;4917300;29;20638;-80
2024/01/16 05:03:52;;;;;;;2.67;1.95;;;3.10;99.90;;;;;;4916562;29;20229;-77
2024/01/16 05:06:19;;;;;;;5.85;2.42;;;3.10;99.90;;;;;;4917158;29;20236;-80
2024/01/16 05:08:46;;;;;;;3.67;2.60;;;3.10;99.90;;;;;;4916821;29;20682;-78
2024/01/16 05:11:13;;;;;;;4.90;2.50;;;3.10;99.90;;;;;;4917041;29;20286;-77
2024/01/16 05:13:40;;;;;;;3.58;2.90;;;3.10;99.90;;;;;;4916717;29;20225;-81
2024/01/16 05:16:08;;;;;;;2.55;2.30;;;3.10;99.90;;;;;;4916332;29;20233;-78
2024/01/16 05:18:36;;;;;;;5.47;3.13;;;3.00;99.90;;;;;;4916900;29;20233;-77
2024/01/16 05:21:03;;;;;;;5.35;2.45;;;3.10;99.90;;;;;;4916432;29;20756;-80
2024/01/16 05:23:30;;;;;;;2.88;2.60;;;3.00;99.90;;;;;;4916940;29;20241;-81
2024/01/16 05:25:57;;;;;;;4.15;2.85;;;3.00;99.90;;;;;;4916701;29;20236;-78
2024/01/16 05:28:24;;;;;;;2.70;2.50;;;3.00;99.90;;;;;;4916582;29;20249;-80
2024/01/16 05:30:51;;;;;;;2.95;2.75;;;3.00;99.90;;;;;;4916856;29;20561;-77
2024/01/16 05:33:22;;;;;;;3.78;3.38;;;3.00;99.90;;;;;;4916986;29;20233;-77
2024/01/16 05:35:50;;;;;;;3.40;2.97;;;2.90;99.90;;;;;;4916937;29;20593;-77
2024/01/16 05:38:17;;;;;;;3.42;2.90;;;2.90;99.90;;;;;;4916392;29;20228;-78
2024/01/16 05:40:44;;;;;;;3.65;3.35;;;2.90;99.90;;;;;;4916838;29;20312;-77
2024/01/16 05:43:12;;;;;;;4.35;2.78;;;2.90;99.90;;;;;;4916428;29;20242;-77
2024/01/16 05:45:39;;;;;;;3.88;2.70;;;2.90;99.90;;;;;;4916628;29;20225;-77
2024/01/16 05:48:08;;;;;;;4.78;3.75;;;2.90;99.90;;;;;;4916293;29;20312;-80
2024/01/16 05:50:37;;;;;;;4.25;2.30;;;2.90;99.90;;;;;;4916701;29;20664;-81
2024/01/16 05:53:05;;;;;;;4.18;3.33;;;2.90;99.90;;;;;;4916275;29;20237;-80
2024/01/16 05:55:32;;;;;;;4.32;3.92;;;2.80;99.90;;;;;;4916422;29;20234;-78
2024/01/16 05:58:00;;;;;;;6.90;4.35;;;2.80;99.90;;;;;;4919787;29;20244;-78
2024/01/16 06:00:27;;;;;;;8.30;4.50;;;2.80;99.90;;;;;;4920555;29;20253;-77
2024/01/16 06:02:54;;;;;;;6.60;4.30;;;2.80;99.90;;;;;;4920157;29;20237;-81
2024/01/16 06:05:21;;;;;;;10.15;5.57;;;2.80;99.90;;;;;;4919677;29;20636;-81
2024/01/16 06:07:50;;;;;;;6.05;4.35;;;2.80;99.90;;;;;;4919980;29;20233;-78
2024/01/16 06:10:17;;;;;;;3.60;3.28;;;2.70;99.90;;;;;;4919559;29;20237;-81
2024/01/16 06:12:46;;;;;;;17.25;4.65;;;2.70;99.90;;;;;;4920475;29;20232;-81
2024/01/16 06:15:13;;;;;;;10.38;6.60;;;2.80;99.90;;;;;;4919782;29;20230;-81
2024/01/16 06:17:40;;;;;;;10.13;5.35;;;2.70;99.90;;;;;;4919975;29;20233;-77
2024/01/16 06:20:08;;;;;;;10.95;5.75;;;2.80;99.90;;;;;;4918758;29;20304;-80
2024/01/16 06:22:35;;;;;;;3.83;3.38;;;2.80;99.90;;;;;;4919986;29;20602;-81
2024/01/16 06:25:04;;;;;;;5.03;3.35;;;2.80;99.90;;;;;;4919491;29;20554;-81
2024/01/16 06:27:30;;;;;;;3.10;2.63;;;2.90;99.90;;;;;;4909784;29;20237;-81
2024/01/16 06:29:57;;;;;;;5.90;3.35;;;2.80;99.90;;;;;;4919639;29;20698;-81
2024/01/16 06:32:24;;;;;;;3.33;3.03;;;2.80;99.90;;;;;;4918970;29;20225;-81
2024/01/16 06:34:51;;;;;;;4.82;3.83;;;2.80;99.90;;;;;;4919641;29;20241;-80
2024/01/16 06:37:18;;;;;;;4.18;3.65;;;2.80;99.90;;;;;;4919513;29;20237;-81
2024/01/16 06:39:45;;;;;;;3.40;2.83;;;2.80;99.90;;;;;;4919829;29;20292;-82
2024/01/16 06:45:31;;;;;;;3.10;2.80;;;2.80;99.90;;;;;;4917821;29;20758;-77
2024/01/16 06:47:58;;;;;;;4.40;3.47;;;2.80;99.90;;;;;;4918967;29;20222;-81
2024/01/16 06:50:25;;;;;;;4.95;3.00;;;2.70;99.90;;;;;;4919416;29;20308;-81
2024/01/16 06:52:53;;;;;;;3.20;3.00;;;2.70;99.90;;;;;;4918765;29;20237;-81
2024/01/16 06:55:25;;;;;;;3.53;3.00;;;2.70;99.90;;;;;;4919337;29;20304;-81
2024/01/16 06:57:52;;;;;;;4.70;3.95;;;2.70;99.90;;;;;;4918848;29;20578;-81
2024/01/16 07:00:22;;;;;;;7.43;3.08;;;2.70;99.90;;;;;;4919158;29;20240;-81
2024/01/16 07:02:51;;;;;;;4.40;3.10;;;2.70;99.90;;;;;;4918555;29;20309;-77
2024/01/16 07:05:18;;;;;;;4.20;3.47;;;2.70;99.90;;;;;;4918885;29;20292;-78
2024/01/16 07:07:47;;;;;;;6.43;3.92;;;2.70;99.90;;;;;;4917956;29;20217;-77
2024/01/16 07:10:18;;;;;;;7.22;5.07;;;2.80;99.90;;;;;;4918870;29;20228;-77
2024/01/16 07:12:45;;;;;;;7.35;5.88;;;2.80;99.90;;;;;;4918275;29;20229;-78
2024/01/16 07:15:25;;;;;;;9.93;6.40;;;2.80;99.90;;;;;;4919196;29;20229;-77
2024/01/16 07:17:56;;;;;;;5.60;4.25;;;2.80;99.90;;;;;;4908138;29;20233;-77
2024/01/16 07:20:23;;;;;;;5.18;3.53;;;2.80;99.90;;;;;;4918451;29;20672;-81
2024/01/16 07:22:50;;;;;;;6.65;3.35;;;2.80;99.90;;;;;;4918476;29;20268;-81
2024/01/16 07:25:17;;;;;;;4.95;3.33;;;2.80;99.90;;;;;;4918951;29;20244;-81
2024/01/16 07:27:46;;;;;;;7.78;3.10;;;2.80;99.90;;;;;;4918014;29;20249;-77
2024/01/16 07:30:14;;;;;;;5.88;4.00;;;2.80;99.90;;;;;;4918382;29;20680;-77
2024/01/16 07:32:41;;;;;;;3.83;3.05;;;2.90;99.90;;;;;;4918469;29;20248;-77
2024/01/16 07:35:09;;;;;;;4.45;3.90;;;2.90;99.90;;;;;;4918132;29;20221;-77
2024/01/16 07:37:36;;;;;;;4.35;3.85;;;2.90;99.90;;;;;;4918642;29;20232;-77
2024/01/16 07:40:05;;;;;;;6.20;3.35;;;2.90;99.90;;;;;;4917943;29;20233;-77
2024/01/16 07:42:34;;;;;;;5.45;4.32;;;3.00;99.90;;;;;;4919484;29;20232;-81
2024/01/16 07:45:04;;;;;;;11.63;4.75;;;3.00;99.90;;;;;;4918139;29;20248;-81
2024/01/16 07:47:31;;;;;;;6.78;3.35;;;3.00;99.90;;;;;;4918305;29;20229;-81
2024/01/16 07:49:58;;;;;;;6.10;4.28;;;3.00;99.90;;;;;;4916772;29;20225;-78
2024/01/16 07:52:26;;;;;;;4.72;4.43;;;3.10;99.90;;;;;;4918178;29;20244;-78
2024/01/16 07:54:53;;;;;;;10.68;4.93;;;3.10;99.90;;;;;;4917150;29;20257;-80
2024/01/16 07:57:23;;;;;;;7.30;5.80;;;3.10;99.90;;;;;;4918523;29;20229;-77
2024/01/16 07:59:50;;;;;;;7.55;5.10;;;3.10;99.90;;;;;;4917707;29;20238;-78
2024/01/16 08:02:21;;;;;;;6.18;5.15;;;3.10;99.90;;;;;;4918077;29;20237;-77
2024/01/16 08:04:48;;;;;;;6.03;5.47;;;3.20;99.90;;;;;;4917399;29;20345;-80
2024/01/16 08:07:17;;;;;;;9.10;4.90;;;3.20;99.90;;;;;;4918459;29;20292;-81
2024/01/16 08:09:46;;;;;;;6.82;6.10;;;3.20;99.90;;;;;;4918067;29;20237;-77
2024/01/16 08:12:16;;;;;;;5.05;4.18;;;3.20;99.90;;;;;;4917673;29;20229;-81
2024/01/16 08:14:46;;;;;;;5.78;3.35;;;3.20;99.90;;;;;;4917912;29;20289;-77
2024/01/16 08:17:13;;;;;;;6.40;4.10;;;3.30;99.90;;;;;;4917753;29;20648;-77
2024/01/16 08:19:40;;;;;;;5.15;4.65;;;3.30;99.90;;;;;;4916846;29;20588;-77
2024/01/16 08:22:08;;;;;;;6.47;5.03;;;3.30;99.90;;;;;;4918685;29;20373;-81
2024/01/16 08:24:35;;;;;;;6.35;4.70;;;3.40;99.90;;;;;;4917977;29;20623;-81
2024/01/16 08:27:04;;;;;;;6.55;4.65;;;3.40;99.90;;;;;;4917256;29;20229;-81
2024/01/16 08:29:31;;;;;;;6.35;5.75;;;3.40;99.90;;;;;;4917080;29;20233;-81
2024/01/16 08:31:58;;;;;;;5.57;5.00;;;3.40;99.90;;;;;;4916614;29;20312;-81
2024/01/16 08:34:25;;;;;;;7.00;4.65;;;3.40;99.90;;;;;;4917573;29;20320;-80
2024/01/16 08:36:56;;;;;;;6.30;4.68;;;3.40;99.90;;;;;;4917192;29;20233;-81
2024/01/16 08:39:23;;;;;;;8.52;4.53;;;3.40;99.90;;;;;;4916786;29;20285;-81
2024/01/16 08:41:53;;;;;;;5.22;4.25;;;3.40;99.90;;;;;;4916966;29;20692;-77
2024/01/16 08:44:21;;;;;;;6.93;5.00;;;3.50;99.90;;;;;;4917409;29;20312;-81
2024/01/16 08:46:48;;;;;;;6.57;4.60;;;3.50;99.90;;;;;;4917459;29;20225;-81
2024/01/16 08:49:15;;;;;;;5.80;5.03;;;3.50;99.90;;;;;;4916904;29;20688;-81
2024/01/16 08:51:42;;;;;;;5.90;4.30;;;3.60;99.90;;;;;;4917233;29;20630;-81
2024/01/16 08:54:09;;;;;;;5.90;4.22;;;3.60;99.90;;;;;;4916314;29;20707;-81
2024/01/16 08:56:36;;;;;;;7.32;5.43;;;3.70;99.90;;;;;;4916933;29;20288;-77
2024/01/16 08:59:03;;;;;;;3.97;3.63;;;3.70;99.90;;;;;;4916691;29;20237;-81
2024/01/16 09:01:34;;;;;;;5.55;4.90;;;3.70;99.90;;;;;;4917260;29;20246;-80
2024/01/16 09:04:01;;;;;;;5.78;5.30;;;3.70;99.90;;;;;;4916436;29;20631;-81
2024/01/16 09:06:28;;;;;;;6.78;4.32;;;3.70;99.90;;;;;;4917299;29;20228;-81
2024/01/16 09:08:56;;;;;;;7.72;5.07;;;3.80;99.90;;;;;;4917029;29;20226;-80
2024/01/16 09:11:22;;;;;;;6.88;4.93;;;3.70;99.90;;;;;;4916973;29;20795;-77
2024/01/16 09:13:49;;;;;;;5.18;4.70;;;3.70;99.90;;;;;;4917005;29;20702;-77
2024/01/16 09:16:16;;;;;;;4.55;4.15;;;3.80;99.90;;;;;;4916521;29;20233;-77
2024/01/16 09:18:45;;;;;;;5.00;4.53;;;3.80;99.90;;;;;;4916826;29;20244;-81
2024/01/16 09:21:14;;;;;;;5.10;4.60;;;3.80;99.90;;;;;;4916527;29;20308;-81
2024/01/16 09:23:40;;;;;;;10.63;6.80;;;3.80;99.90;;;;;;4916895;29;20240;-80
2024/01/16 09:26:07;;;;;;;9.45;6.82;;;3.80;99.90;;;;;;4916171;29;20233;-81
2024/01/16 09:28:34;;;;;;;6.60;5.90;;;3.90;99.90;;;;;;4916787;29;20228;-80
2024/01/16 09:31:01;;;;;;;6.40;5.65;;;3.90;99.90;;;;;;4917398;29;20233;-77
2024/01/16 09:33:28;;;;;;;12.32;5.88;;;3.90;99.90;;;;;;4920636;29;20248;-77
2024/01/16 09:35:57;;;;;;;6.72;5.32;;;3.90;99.90;;;;;;4920649;29;20298;-77
2024/01/16 09:38:24;;;;;;;7.55;5.07;;;3.90;99.90;;;;;;4909939;29;20684;-76
2024/01/16 09:40:52;;;;;;;6.55;5.40;;;3.90;99.90;;;;;;4921245;29;20248;-76
2024/01/16 09:43:20;;;;;;;8.05;5.82;;;3.90;99.90;;;;;;4920449;29;20233;-76
2024/01/16 09:45:49;;;;;;;6.80;5.07;;;4.00;99.90;;;;;;4920456;29;20251;-77
2024/01/16 09:48:17;;;;;;;8.27;6.85;;;4.00;99.90;;;;;;4920563;29;20320;-76
2024/01/16 09:50:44;;;;;;;7.22;6.20;;;4.00;99.90;;;;;;4920380;29;20225;-76
2024/01/16 09:53:12;;;;;;;6.63;6.03;;;4.00;99.90;;;;;;4919577;29;20240;-77
2024/01/16 09:55:39;;;;;;;8.20;7.40;;;4.10;99.90;;;;;;4920234;29;20225;-77
2024/01/16 09:58:12;;;;;;;9.15;6.90;;;4.10;99.90;;;;;;4919756;29;20571;-76
2024/01/16 10:00:40;;;;;;;10.10;5.95;;;4.10;99.90;;;;;;4919964;29;20320;-76
2024/01/16 10:03:07;;;;;;;5.55;4.95;;;4.10;99.90;;;;;;4919639;29;20241;-76
2024/01/16 10:05:35;;;;;;;8.75;7.05;;;4.20;99.90;;;;;;4919836;29;20236;-76
2024/01/16 10:08:02;;;;;;;8.27;5.53;;;4.20;99.90;;;;;;4920117;29;20245;-77
2024/01/16 10:10:31;;;;;;;10.48;4.47;;;4.40;99.90;;;;;;4919669;29;20225;-76
2024/01/16 10:12:58;;;;;;;8.90;5.50;;;4.40;99.90;;;;;;4919862;29;20237;-76
2024/01/16 10:15:25;;;;;;;6.20;5.10;;;4.50;99.90;;;;;;4919601;29;20229;-76
2024/01/16 10:17:53;;;;;;;10.52;6.10;;;4.50;99.90;;;;;;4920019;29;20241;-77
2024/01/16 10:20:33;;;;;;;9.85;5.32;;;4.60;99.90;;;;;;4919434;29;20690;-77
2024/01/16 10:23:03;;;;;;;5.25;4.45;;;4.60;99.90;;;;;;4919786;29;20783;-76
2024/01/16 10:25:31;;;;;;;8.60;5.15;;;4.70;99.90;;;;;;4919736;29;20304;-76
2024/01/16 10:28:07;;;;;;;12.88;7.60;;;4.70;99.90;;;;;;4919772;29;20241;-76
2024/01/16 10:30:34;;;;;;;6.70;5.85;;;4.70;99.90;;;;;;4919532;29;20218;-77
2024/01/16 10:33:14;;;;;;;8.50;5.43;;;4.70;99.90;;;;;;4919525;29;20244;-77
2024/01/16 10:35:41;;;;;;;8.68;5.47;;;4.70;99.90;;;;;;4919561;29;20644;-79
2024/01/16 10:38:08;;;;;;;4.82;4.05;;;4.80;99.90;;;;;;4919720;29;20576;-80
2024/01/16 10:40:37;;;;;;;10.90;5.13;;;4.80;99.90;;;;;;4919202;29;20256;-80
2024/01/16 10:43:06;;;;;;;6.43;4.68;;;4.80;99.90;;;;;;4918248;29;20233;-80
2024/01/16 10:45:34;;;;;;;5.55;4.03;;;4.80;99.90;;;;;;4919177;29;20279;-80
2024/01/16 10:48:05;;;;;;;4.28;3.88;;;4.90;99.90;;;;;;4919338;29;20237;-80
2024/01/16 10:50:33;;;;;;;7.00;5.13;;;4.80;99.90;;;;;;4917739;29;20259;-80
2024/01/16 10:53:01;;;;;;;6.82;4.35;;;4.80;99.90;;;;;;4919484;29;20233;-80
2024/01/16 10:55:33;;;;;;;6.85;5.88;;;4.90;99.90;;;;;;4918759;29;20743;-80
2024/01/16 10:58:08;;;;;;;4.35;3.83;;;4.90;99.90;;;;;;4919501;29;20238;-81
2024/01/16 11:00:39;;;;;;;5.05;3.45;;;5.00;99.90;;;;;;4918700;29;20256;-79
2024/01/16 11:03:09;;;;;;;8.02;4.13;;;5.00;99.90;;;;;;4919049;29;20322;-80
2024/01/16 11:05:38;;;;;;;5.63;5.10;;;5.00;99.90;;;;;;4919091;29;20229;-80
2024/01/16 11:08:06;;;;;;;4.75;3.10;;;5.00;99.90;;;;;;4919084;29;20237;-81
2024/01/16 11:10:33;;;;;;;4.20;3.40;;;5.00;99.90;;;;;;4919877;29;20233;-80
2024/01/16 11:13:05;;;;;;;3.58;3.28;;;5.00;99.90;;;;;;4917896;29;20696;-80
2024/01/16 11:15:33;;;;;;;3.95;3.45;;;5.00;99.90;;;;;;4903071;29;20236;-80
2024/01/16 11:18:01;;;;;;;5.78;3.85;;;5.10;99.90;;;;;;4899864;29;20238;-80
2024/01/16 11:20:30;;;;;;;3.40;2.97;;;5.10;99.90;;;;;;4900642;29;20233;-79
2024/01/16 11:22:59;;;;;;;3.85;3.28;;;5.10;99.90;;;;;;4908255;29;20239;-81
2024/01/16 11:25:33;;;;;;;3.55;2.78;;;5.10;99.90;;;;;;4905283;29;20564;-81
2024/01/16 11:28:09;;;;;;;5.15;3.97;;;5.10;99.90;;;;;;4918638;29;20711;-80
2024/01/16 11:30:36;;;;;;;3.30;2.92;;;5.10;99.90;;;;;;4905072;29;20581;-80
2024/01/16 11:33:04;;;;;;;6.80;5.13;;;5.10;99.90;;;;;;4901200;29;20297;-80
2024/01/16 11:35:36;;;;;;;3.75;2.80;;;5.10;99.90;;;;;;4899389;29;20237;-80
2024/01/16 11:38:09;;;;;;;5.28;3.42;;;5.10;99.90;;;;;;4899929;29;20693;-80
2024/01/16 11:40:37;;;;;;;6.30;3.65;;;5.10;99.90;;;;;;4915727;29;20237;-81
2024/01/16 11:43:41;;;;;;;5.10;3.20;;;5.00;99.90;;;;;;4904360;29;20285;-81
2024/01/16 11:46:08;;;;;;;5.40;3.40;;;4.90;99.90;;;;;;4901839;29;20561;-77
2024/01/16 11:48:38;;;;;;;5.78;4.80;;;4.90;99.90;;;;;;4899438;29;20226;-78
2024/01/16 11:51:25;;;;;;;4.82;3.80;;;4.90;99.90;;;;;;4899418;29;20707;-77
2024/01/16 11:53:52;;;;;;;4.65;4.07;;;4.90;99.90;;;;;;4903925;29;20229;-77
2024/01/16 11:56:43;;;;;;;3.20;2.80;;;4.90;99.90;;;;;;4901495;29;20238;-80
2024/01/16 11:59:40;;;;;;;9.75;5.80;;;4.80;99.90;;;;;;4905981;29;20522;-79
2024/01/16 12:02:13;;;;;;;5.07;4.30;;;4.80;99.90;;;;;;4902352;29;20225;-77
2024/01/16 12:04:43;;;;;;;9.23;4.75;;;4.80;99.90;;;;;;4917619;29;20239;-79
2024/01/16 12:07:10;;;;;;;6.93;3.92;;;4.80;99.90;;;;;;4917403;29;20294;-81
2024/01/16 12:09:38;;;;;;;8.23;4.22;;;4.80;99.90;;;;;;4906379;29;20233;-78
2024/01/16 12:12:06;;;;;;;4.82;4.43;;;4.80;99.90;;;;;;4901456;29;20321;-77
2024/01/16 12:14:35;;;;;;;7.55;4.53;;;4.80;99.90;;;;;;4899549;29;20217;-77
2024/01/16 12:17:12;;;;;;;8.57;5.18;;;4.90;99.90;;;;;;4914335;29;20262;-81
2024/01/16 12:19:41;;;;;;;9.38;5.10;;;4.80;99.90;;;;;;4911837;29;20683;-81
2024/01/16 12:22:10;;;;;;;9.88;5.22;;;4.70;99.90;;;;;;4904382;29;20238;-81
2024/01/16 12:24:37;;;;;;;7.55;4.72;;;4.70;99.90;;;;;;4901802;29;20281;-82
2024/01/16 12:27:05;;;;;;;8.52;5.15;;;4.70;99.90;;;;;;4899478;29;20304;-81
2024/01/16 12:29:33;;;;;;;5.85;4.85;;;4.60;99.90;;;;;;4898564;29;20239;-80
2024/01/16 12:32:08;;;;;;;6.13;4.30;;;4.70;99.90;;;;;;4898289;29;20689;-77
2024/01/16 12:34:36;;;;;;;7.20;5.50;;;4.70;99.90;;;;;;4898858;29;20249;-80
2024/01/16 12:37:08;;;;;;;6.60;5.53;;;4.80;99.90;;;;;;4898097;29;20237;-80
2024/01/16 12:39:35;;;;;;;5.70;4.88;;;4.80;99.90;;;;;;4898384;29;20233;-80
2024/01/16 12:42:04;;;;;;;5.63;5.13;;;4.80;99.90;;;;;;4897947;29;20248;-80
2024/01/16 12:44:31;;;;;;;5.85;4.72;;;4.80;99.90;;;;;;4898504;29;20237;-80
2024/01/16 12:47:01;;;;;;;7.30;5.47;;;4.90;99.90;;;;;;4897909;29;20230;-80
2024/01/16 12:49:29;;;;;;;7.68;4.68;;;4.90;99.90;;;;;;4898537;29;20226;-77
2024/01/16 12:52:19;;;;;;;4.72;4.03;;;5.00;99.90;;;;;;4897655;29;20229;-77
2024/01/16 12:54:46;;;;;;;3.85;3.42;;;5.00;99.90;;;;;;4897960;29;20330;-76
2024/01/16 12:57:19;;;;;;;8.02;4.00;;;4.90;99.90;;;;;;4898077;29;20282;-76
2024/01/16 12:59:49;;;;;;;8.50;3.83;;;5.00;99.90;;;;;;4898053;29;20226;-76
2024/01/16 13:02:25;;;;;;;5.88;4.22;;;5.00;99.90;;;;;;4897621;29;20234;-77
2024/01/16 13:04:59;;;;;;;9.07;4.18;;;5.00;99.90;;;;;;4897836;29;20248;-76
2024/01/16 13:07:27;;;;;;;4.03;3.63;;;5.00;99.90;;;;;;4897489;29;20610;-81